Time;durP1;ratioP1;P1;durP2;ratioP2;P2;SDS_P1;SDS_P2;PMS_P1;PMS_P2;Temp;Humidity;BMP_temperature;BMP_pressure;BME280_temperature;BME280_humidity;BME280_pressure;Samples;Min_cycle;Max_cycle;Signal;HPM_P1;HPM_P2
2024/01/27 00:02:20;;;;;;;7.87;2.30;;;;;;;7.25;67.35;96436.72;4974187;28;20211;-85
2024/01/27 00:04:46;;;;;;;3.37;1.90;;;;;;;7.23;67.47;96448.84;4976487;28;20208;-85
2024/01/27 00:07:12;;;;;;;3.90;2.37;;;;;;;7.16;68.28;96483.63;4976740;28;20314;-85
2024/01/27 00:09:40;;;;;;;6.73;2.17;;;;;;;7.20;68.28;96499.53;4976444;28;20905;-85
2024/01/27 00:12:08;;;;;;;3.50;2.20;;;;;;;7.20;68.21;96510.59;4975071;28;20231;-84
2024/01/27 00:14:35;;;;;;;3.10;2.07;;;;;;;7.23;68.13;96504.38;4976643;28;20235;-85
2024/01/27 00:17:01;;;;;;;3.00;1.90;;;;;;;7.19;68.25;96521.78;4974756;28;20766;-84
2024/01/27 00:19:27;;;;;;;5.27;1.97;;;;;;;7.22;68.78;96531.75;4975904;28;20204;-86
2024/01/27 00:21:54;;;;;;;6.67;1.93;;;;;;;7.23;68.62;96541.06;4975636;28;20196;-84
2024/01/27 00:24:20;;;;;;;2.97;1.90;;;;;;;7.25;68.50;96517.88;4975952;28;20208;-85
2024/01/27 00:26:48;;;;;;;5.50;1.93;;;;;;;7.25;68.66;96525.56;4975871;28;20227;-85
2024/01/27 00:29:15;;;;;;;2.67;2.20;;;;;;;7.27;69.18;96536.50;4976038;28;20204;-87
2024/01/27 00:31:41;;;;;;;2.87;2.10;;;;;;;7.20;68.92;96531.06;4974730;28;20204;-87
2024/01/27 00:34:07;;;;;;;4.80;2.10;;;;;;;7.13;68.77;96514.59;4973600;28;20220;-85
2024/01/27 00:36:36;;;;;;;2.90;1.80;;;;;;;7.15;69.33;96540.09;4975455;28;20236;-85
2024/01/27 00:39:03;;;;;;;2.63;1.60;;;;;;;7.10;68.76;96519.22;4974609;28;20204;-85
2024/01/27 00:41:29;;;;;;;4.10;2.10;;;;;;;7.03;68.91;96518.09;4975410;28;20205;-86
2024/01/27 00:43:57;;;;;;;3.47;1.90;;;;;;;7.05;69.14;96539.25;4975588;28;20200;-84
2024/01/27 00:46:23;;;;;;;2.60;1.77;;;;;;;7.00;68.89;96537.09;4969507;28;20227;-85
2024/01/27 00:48:50;;;;;;;3.23;1.83;;;;;;;7.01;69.01;96533.59;4975990;28;20854;-84
2024/01/27 00:51:16;;;;;;;3.33;2.00;;;;;;;7.00;69.25;96541.41;4973780;28;20200;-84
2024/01/27 00:53:43;;;;;;;2.97;1.77;;;;;;;6.91;69.53;96568.63;4975816;28;20633;-85
2024/01/27 00:56:09;;;;;;;3.07;1.90;;;;;;;6.83;70.20;96571.81;4975025;28;20231;-85
2024/01/27 00:58:35;;;;;;;2.73;1.90;;;;;;;6.86;69.92;96574.13;4975991;28;20231;-84
2024/01/27 01:01:04;;;;;;;2.43;1.77;;;;;;;6.87;70.01;96570.63;4974106;28;20207;-85
2024/01/27 01:03:30;;;;;;;3.67;1.90;;;;;;;6.82;70.13;96572.75;4974612;28;20231;-84
2024/01/27 01:05:56;;;;;;;2.57;1.90;;;;;;;6.81;69.74;96565.19;4973234;28;20228;-85
2024/01/27 01:08:23;;;;;;;3.73;1.70;;;;;;;6.70;69.76;96572.97;4975489;28;20204;-85
2024/01/27 01:10:50;;;;;;;1.93;1.57;;;;;;;6.55;70.27;96593.75;4972045;28;20200;-84
2024/01/27 01:13:16;;;;;;;4.30;1.87;;;;;;;6.51;70.72;96614.63;4956381;29;20621;-86
2024/01/27 01:15:42;;;;;;;3.23;1.70;;;;;;;6.54;71.10;96619.50;4962665;28;20688;-85
2024/01/27 01:18:10;;;;;;;3.43;1.93;;;;;;;6.55;70.97;96608.28;4974886;28;20196;-85
2024/01/27 01:20:37;;;;;;;4.60;2.10;;;;;;;6.54;70.21;96581.91;4975318;28;20606;-85
2024/01/27 01:23:03;;;;;;;2.23;1.40;;;;;;;6.63;69.79;96576.97;4972451;28;20208;-85
2024/01/27 01:25:30;;;;;;;3.67;2.03;;;;;;;6.69;69.86;96568.78;4975412;28;20709;-85
2024/01/27 01:27:57;;;;;;;2.50;1.63;;;;;;;6.71;69.43;96564.34;4974941;28;20201;-84
2024/01/27 01:30:23;;;;;;;3.50;1.90;;;;;;;6.68;68.98;96541.56;4974766;28;20258;-84
2024/01/27 01:32:50;;;;;;;4.03;1.70;;;;;;;6.64;68.69;96535.91;4974934;28;20686;-85
2024/01/27 01:35:18;;;;;;;3.20;1.70;;;;;;;6.63;69.01;96544.50;4975347;28;20215;-85
2024/01/27 01:37:44;;;;;;;3.17;1.60;;;;;;;6.59;69.24;96558.50;4973285;28;20251;-85
2024/01/27 01:40:12;;;;;;;4.07;2.10;;;;;;;6.62;69.25;96565.09;4974068;28;20208;-84
2024/01/27 01:42:37;;;;;;;3.47;1.90;;;;;;;6.65;69.14;96565.66;4974341;28;20207;-84
2024/01/27 01:45:05;;;;;;;3.10;1.70;;;;;;;6.55;68.95;96563.06;4974325;28;20196;-84
2024/01/27 01:47:31;;;;;;;4.10;1.93;;;;;;;6.47;68.98;96567.19;4974691;28;20216;-84
2024/01/27 01:49:57;;;;;;;3.63;1.90;;;;;;;6.36;68.83;96547.59;4974936;28;20214;-85
2024/01/27 01:52:25;;;;;;;2.87;2.30;;;;;;;6.34;69.07;96553.81;4974541;28;20204;-85
2024/01/27 01:54:52;;;;;;;2.63;1.77;;;;;;;6.36;69.27;96554.47;4971833;28;20220;-86
2024/01/27 01:57:18;;;;;;;3.27;2.10;;;;;;;6.35;69.09;96548.53;4973993;28;20220;-85
2024/01/27 01:59:45;;;;;;;3.63;1.80;;;;;;;6.32;68.76;96532.66;4974851;28;20204;-85
2024/01/27 02:02:13;;;;;;;3.87;1.70;;;;;;;6.27;68.81;96545.81;4973606;28;20204;-86
2024/01/27 02:04:41;;;;;;;4.37;1.80;;;;;;;6.27;68.88;96553.50;4974652;28;20591;-85
2024/01/27 02:07:07;;;;;;;2.90;1.67;;;;;;;6.27;68.99;96555.25;4973575;28;20745;-84
2024/01/27 02:09:35;;;;;;;3.93;1.87;;;;;;;6.19;68.72;96546.44;4974049;28;20208;-85
2024/01/27 02:12:02;;;;;;;3.70;1.73;;;;;;;6.25;68.90;96570.72;4972267;28;20274;-84
2024/01/27 02:14:29;;;;;;;5.23;1.83;;;;;;;6.26;69.01;96579.19;4973784;28;20228;-85
2024/01/27 02:16:55;;;;;;;3.80;2.00;;;;;;;6.24;69.09;96589.53;4976572;28;20224;-85
2024/01/27 02:19:22;;;;;;;3.03;1.50;;;;;;;6.20;68.66;96575.38;4977985;28;20208;-85
2024/01/27 02:21:48;;;;;;;3.47;1.67;;;;;;;6.17;68.57;96573.88;4976918;28;20220;-84
2024/01/27 02:24:16;;;;;;;4.53;1.97;;;;;;;6.16;68.74;96571.44;4977042;28;20245;-85
2024/01/27 02:26:43;;;;;;;3.70;1.70;;;;;;;6.12;68.62;96568.34;4974555;28;20694;-85
2024/01/27 02:29:09;;;;;;;2.57;1.57;;;;;;;6.09;68.67;96563.47;4976677;28;20748;-85
2024/01/27 02:31:35;;;;;;;3.47;1.63;;;;;;;6.12;68.33;96559.88;4976584;28;20266;-84
2024/01/27 02:34:02;;;;;;;4.27;2.00;;;;;;;6.12;68.70;96570.91;4976448;28;20228;-85
2024/01/27 02:36:28;;;;;;;3.97;1.90;;;;;;;6.13;68.80;96575.09;4972588;28;20846;-84
2024/01/27 02:38:54;;;;;;;2.23;1.40;;;;;;;6.10;68.58;96561.72;4972595;28;20207;-85
2024/01/27 02:41:22;;;;;;;3.27;1.60;;;;;;;6.15;68.66;96567.28;4976823;28;20208;-84
2024/01/27 02:43:49;;;;;;;2.80;1.50;;;;;;;6.17;68.66;96567.94;4975178;28;20208;-84
2024/01/27 02:46:15;;;;;;;1.70;1.40;;;;;;;6.19;68.40;96559.22;4976269;28;20231;-84
2024/01/27 02:48:42;;;;;;;2.27;1.50;;;;;;;6.17;68.49;96542.38;4976721;28;20569;-84
2024/01/27 02:51:08;;;;;;;5.10;1.60;;;;;;;6.18;68.18;96542.25;4975686;28;20208;-86
2024/01/27 02:53:35;;;;;;;3.93;1.50;;;;;;;6.15;68.27;96532.31;4975870;28;20565;-85
2024/01/27 02:56:02;;;;;;;2.40;1.80;;;;;;;6.08;68.42;96549.06;4975687;28;20228;-85
2024/01/27 02:58:29;;;;;;;4.00;2.00;;;;;;;6.05;68.82;96576.63;4974531;28;20612;-85
2024/01/27 03:00:56;;;;;;;3.87;1.63;;;;;;;6.09;68.93;96586.50;4975330;28;20207;-84
2024/01/27 03:03:22;;;;;;;2.67;1.70;;;;;;;6.05;68.73;96574.06;4976730;28;20210;-84
2024/01/27 03:05:50;;;;;;;5.17;2.20;;;;;;;6.06;68.79;96580.81;4975845;28;20199;-85
2024/01/27 03:08:16;;;;;;;3.73;1.53;;;;;;;6.04;68.68;96580.94;4975970;28;20659;-85
2024/01/27 03:10:43;;;;;;;3.57;1.50;;;;;;;6.04;68.95;96586.03;4973938;28;20204;-84
2024/01/27 03:13:09;;;;;;;3.17;1.47;;;;;;;6.05;69.36;96602.19;4956596;29;20209;-85
2024/01/27 03:15:37;;;;;;;1.83;1.40;;;;;;;6.00;69.44;96623.00;4966854;28;20230;-85
2024/01/27 03:18:04;;;;;;;4.27;2.13;;;;;;;6.02;69.68;96622.88;4976227;28;20236;-84
2024/01/27 03:20:31;;;;;;;4.20;1.80;;;;;;;6.04;69.41;96618.47;4975872;28;20200;-85
2024/01/27 03:22:57;;;;;;;2.87;1.50;;;;;;;6.09;69.26;96634.25;4975937;28;20592;-85
2024/01/27 03:25:25;;;;;;;2.60;1.57;;;;;;;6.10;69.31;96629.03;4975428;28;20910;-86
2024/01/27 03:27:52;;;;;;;3.57;1.63;;;;;;;6.11;69.17;96633.19;4975195;28;20247;-86
2024/01/27 03:30:18;;;;;;;3.40;1.50;;;;;;;6.13;69.16;96628.78;4973781;28;20294;-85
2024/01/27 03:32:46;;;;;;;7.43;2.07;;;;;;;6.12;69.20;96629.72;4974443;28;20615;-84
2024/01/27 03:35:12;;;;;;;3.17;1.40;;;;;;;6.13;69.46;96640.75;4970380;28;20216;-84
2024/01/27 03:37:38;;;;;;;4.20;1.50;;;;;;;6.11;69.22;96629.81;4974657;28;20753;-85
2024/01/27 03:40:06;;;;;;;4.37;2.03;;;;;;;6.09;68.79;96629.94;4974274;28;20196;-84
2024/01/27 03:42:32;;;;;;;3.73;1.50;;;;;;;6.11;68.54;96619.59;4974549;28;20204;-84
2024/01/27 03:44:59;;;;;;;6.10;1.73;;;;;;;6.11;68.68;96627.28;4975055;28;20193;-86
2024/01/27 03:47:25;;;;;;;2.70;1.60;;;;;;;6.13;68.60;96626.22;4972952;28;20235;-85
2024/01/27 03:49:53;;;;;;;3.90;1.63;;;;;;;6.16;68.72;96632.81;4975073;28;20211;-84
2024/01/27 03:52:19;;;;;;;6.13;1.80;;;;;;;6.08;68.51;96630.88;4973946;28;20600;-83
2024/01/27 03:54:46;;;;;;;2.67;1.50;;;;;;;6.02;68.95;96651.81;4974867;28;20235;-84
2024/01/27 03:57:12;;;;;;;3.33;1.63;;;;;;;6.04;69.20;96677.25;4975413;28;20223;-85
2024/01/27 03:59:41;;;;;;;3.97;1.50;;;;;;;5.98;68.87;96652.97;4974742;28;20200;-84
2024/01/27 04:02:07;;;;;;;2.03;1.43;;;;;;;5.96;69.13;96651.50;4969800;28;20603;-84
2024/01/27 04:04:34;;;;;;;3.63;1.70;;;;;;;5.94;69.23;96651.63;4970254;28;20666;-84
2024/01/27 04:07:02;;;;;;;7.50;1.90;;;;;;;5.95;69.45;96681.38;4973951;28;20231;-84
2024/01/27 04:09:28;;;;;;;2.33;1.30;;;;;;;5.95;69.36;96665.22;4974985;28;20224;-84
2024/01/27 04:11:55;;;;;;;6.07;1.60;;;;;;;5.95;69.24;96660.09;4974515;28;20203;-85
2024/01/27 04:14:21;;;;;;;2.87;1.27;;;;;;;5.99;69.31;96664.03;4974195;28;20211;-84
2024/01/27 04:16:48;;;;;;;4.97;1.70;;;;;;;5.99;69.13;96664.84;4974474;28;20226;-84
2024/01/27 04:19:16;;;;;;;5.17;1.50;;;;;;;6.02;69.50;96666.34;4972372;28;20574;-84
2024/01/27 04:21:43;;;;;;;4.60;1.63;;;;;;;5.99;69.38;96671.69;4974305;28;20670;-84
2024/01/27 04:24:10;;;;;;;3.07;1.73;;;;;;;6.01;69.26;96662.97;4974942;28;20200;-85
2024/01/27 04:26:37;;;;;;;3.10;1.67;;;;;;;5.99;69.05;96658.91;4974188;28;20255;-84
2024/01/27 04:29:03;;;;;;;3.33;1.70;;;;;;;6.00;69.53;96666.47;4968864;28;20204;-86
2024/01/27 04:31:31;;;;;;;5.00;1.70;;;;;;;6.01;69.34;96680.06;4973973;28;20196;-85
2024/01/27 04:33:58;;;;;;;5.80;1.50;;;;;;;5.95;69.17;96660.94;4973496;28;20206;-85
2024/01/27 04:36:28;;;;;;;3.57;1.60;;;;;;;5.93;69.10;96660.22;4973084;28;20232;-84
2024/01/27 04:38:55;;;;;;;3.17;1.50;;;;;;;5.89;69.27;96666.50;4972886;28;20240;-84
2024/01/27 04:41:23;;;;;;;2.83;1.77;;;;;;;5.89;68.94;96672.44;4973333;28;20616;-85
2024/01/27 04:43:50;;;;;;;3.53;1.53;;;;;;;5.86;69.08;96667.53;4973679;28;20208;-84
2024/01/27 04:46:16;;;;;;;2.40;1.57;;;;;;;5.86;69.00;96671.81;4973835;28;20697;-85
2024/01/27 04:48:43;;;;;;;2.57;1.70;;;;;;;5.91;68.97;96671.50;4973673;28;20299;-84
2024/01/27 04:51:09;;;;;;;4.00;1.63;;;;;;;5.91;69.07;96658.72;4972145;28;20196;-84
2024/01/27 04:53:36;;;;;;;1.97;1.30;;;;;;;5.91;68.82;96646.75;4973567;28;20243;-84
2024/01/27 04:56:02;;;;;;;4.77;1.97;;;;;;;5.84;69.13;96681.34;4973939;28;20220;-85
2024/01/27 04:58:30;;;;;;;3.73;1.63;;;;;;;5.83;69.59;96689.94;4973943;28;20204;-84
2024/01/27 05:00:56;;;;;;;4.53;1.80;;;;;;;5.85;69.60;96699.13;4973472;28;20290;-83
2024/01/27 05:03:23;;;;;;;3.17;1.67;;;;;;;5.81;69.21;96679.03;4974078;28;20215;-85
2024/01/27 05:05:49;;;;;;;4.83;1.40;;;;;;;5.81;69.46;96691.81;4973469;28;20205;-84
2024/01/27 05:08:16;;;;;;;5.43;1.87;;;;;;;5.75;69.33;96703.34;4971711;28;20212;-86
2024/01/27 05:10:42;;;;;;;2.97;1.60;;;;;;;5.76;69.73;96730.53;4973502;28;20929;-85
2024/01/27 05:13:08;;;;;;;3.10;1.60;;;;;;;5.74;69.62;96718.78;4974454;28;20216;-84
2024/01/27 05:15:36;;;;;;;4.37;2.60;;;;;;;5.75;69.96;96728.09;4973825;28;20347;-85
2024/01/27 05:18:03;;;;;;;2.83;1.90;;;;;;;5.74;69.78;96742.59;4973899;28;20228;-84
2024/01/27 05:20:29;;;;;;;2.57;1.47;;;;;;;5.73;70.03;96740.97;4973814;28;20254;-85
2024/01/27 05:22:56;;;;;;;4.47;1.90;;;;;;;5.70;69.62;96736.09;4972866;28;20219;-84
2024/01/27 05:25:22;;;;;;;3.40;1.83;;;;;;;5.70;69.69;96738.66;4956216;28;20810;-84
2024/01/27 05:27:48;;;;;;;2.03;1.63;;;;;;;5.70;69.94;96738.66;4972965;28;20219;-86
2024/01/27 05:30:17;;;;;;;2.10;1.50;;;;;;;5.69;69.79;96731.91;4972799;28;20496;-84
2024/01/27 05:32:44;;;;;;;3.83;1.90;;;;;;;5.67;69.67;96745.72;4968315;28;20233;-85
2024/01/27 05:35:11;;;;;;;2.57;1.90;;;;;;;5.63;69.65;96757.91;4959718;28;20227;-85
2024/01/27 05:37:38;;;;;;;6.27;1.87;;;;;;;5.61;69.80;96764.88;4972883;28;20235;-84
2024/01/27 05:40:06;;;;;;;3.87;1.63;;;;;;;5.59;69.73;96768.50;4970148;28;20206;-85
2024/01/27 05:42:33;;;;;;;3.03;1.97;;;;;;;5.60;69.92;96767.56;4971819;28;20239;-85
2024/01/27 05:44:59;;;;;;;4.80;1.87;;;;;;;5.59;69.97;96771.84;4971610;28;20192;-85
2024/01/27 05:47:26;;;;;;;4.03;1.90;;;;;;;5.61;69.99;96775.09;4972457;28;20228;-85
2024/01/27 05:49:53;;;;;;;4.37;1.90;;;;;;;5.61;70.23;96787.06;4971264;28;20207;-85
2024/01/27 05:52:20;;;;;;;2.80;1.90;;;;;;;5.56;70.32;96792.53;4974536;28;20203;-86
2024/01/27 05:54:46;;;;;;;4.23;2.10;;;;;;;5.62;70.13;96799.72;4974501;28;20196;-85
2024/01/27 05:57:13;;;;;;;2.30;1.60;;;;;;;5.63;70.37;96811.56;4972678;28;20607;-85
2024/01/27 05:59:39;;;;;;;3.97;1.73;;;;;;;5.59;70.56;96796.59;4973548;28;20231;-85
2024/01/27 06:02:06;;;;;;;4.83;1.90;;;;;;;5.59;70.38;96817.03;4974029;28;20208;-85
2024/01/27 06:04:33;;;;;;;4.63;2.00;;;;;;;5.55;70.55;96819.84;4974324;28;20223;-85
2024/01/27 06:07:01;;;;;;;4.00;2.00;;;;;;;5.57;70.87;96836.78;4974105;28;20223;-85
2024/01/27 06:09:27;;;;;;;5.83;1.90;;;;;;;5.54;70.66;96830.97;4974167;28;20288;-85
2024/01/27 06:11:53;;;;;;;3.53;1.90;;;;;;;5.53;70.47;96839.56;4971497;28;20204;-85
2024/01/27 06:14:20;;;;;;;3.97;1.80;;;;;;;5.47;70.53;96827.25;4973942;28;20219;-85
2024/01/27 06:16:46;;;;;;;4.50;2.10;;;;;;;5.44;70.83;96834.31;4974380;28;20231;-85
2024/01/27 06:19:13;;;;;;;2.67;1.60;;;;;;;5.42;70.76;96833.63;4974176;28;20597;-85
2024/01/27 06:21:39;;;;;;;4.10;1.93;;;;;;;5.39;70.80;96838.94;4956096;28;20236;-85
2024/01/27 06:24:07;;;;;;;4.67;1.90;;;;;;;5.32;71.00;96835.22;4973628;28;20717;-85
2024/01/27 06:26:33;;;;;;;3.70;1.97;;;;;;;5.30;70.97;96850.66;4975297;28;20588;-85
2024/01/27 06:29:02;;;;;;;5.23;1.80;;;;;;;5.24;71.33;96857.94;4971206;28;20554;-86
2024/01/27 06:31:29;;;;;;;2.87;1.80;;;;;;;5.15;71.48;96872.22;4972321;28;20670;-85
2024/01/27 06:33:56;;;;;;;4.80;2.13;;;;;;;5.12;71.83;96875.00;4971303;28;20196;-85
2024/01/27 06:36:24;;;;;;;4.03;2.10;;;;;;;5.07;71.63;96867.66;4971114;28;20586;-87
2024/01/27 06:38:51;;;;;;;4.43;2.60;;;;;;;5.17;71.71;96872.94;4970311;28;20207;-85
2024/01/27 06:41:19;;;;;;;3.27;1.90;;;;;;;5.20;71.51;96886.25;4974509;28;20658;-86
2024/01/27 06:43:45;;;;;;;5.40;2.17;;;;;;;5.22;71.83;96897.19;4976054;28;20271;-88
2024/01/27 06:46:12;;;;;;;4.07;2.30;;;;;;;5.26;71.77;96891.84;4971518;28;20749;-88
2024/01/27 06:48:38;;;;;;;6.03;2.13;;;;;;;5.25;71.27;96878.28;4971482;28;20199;-88
2024/01/27 06:51:05;;;;;;;4.40;2.50;;;;;;;5.26;71.13;96879.91;4970273;28;20204;-88
2024/01/27 06:53:31;;;;;;;3.00;2.30;;;;;;;5.28;71.63;96890.00;4971244;28;20212;-89
2024/01/27 06:55:58;;;;;;;6.03;2.13;;;;;;;5.27;71.37;96881.53;4969776;28;20228;-89
2024/01/27 06:58:26;;;;;;;3.60;2.10;;;;;;;5.29;71.19;96873.75;4970835;28;20200;-89
2024/01/27 07:00:52;;;;;;;3.70;1.97;;;;;;;5.29;71.49;96882.22;4969656;28;20212;-83
2024/01/27 07:03:18;;;;;;;4.27;2.30;;;;;;;5.27;71.71;96904.50;4970703;28;20713;-86
2024/01/27 07:05:45;;;;;;;3.97;2.40;;;;;;;5.32;71.48;96899.06;4965357;28;20192;-86
2024/01/27 07:08:11;;;;;;;5.17;2.90;;;;;;;5.31;71.49;96897.44;4964691;28;20200;-86
2024/01/27 07:10:38;;;;;;;4.10;2.73;;;;;;;5.36;71.63;96903.03;4970587;28;20676;-86
2024/01/27 07:13:07;;;;;;;3.40;2.47;;;;;;;5.30;71.38;96875.38;4962833;28;20196;-86
2024/01/27 07:15:37;;;;;;;6.67;2.57;;;;;;;5.33;71.46;96875.16;4963864;28;20724;-86
2024/01/27 07:18:04;;;;;;;5.53;2.70;;;;;;;5.36;71.18;96872.41;4965060;28;20888;-87
2024/01/27 07:20:32;;;;;;;4.33;2.33;;;;;;;5.56;70.61;96866.63;4963605;28;20196;-86
2024/01/27 07:22:58;;;;;;;3.73;2.40;;;;;;;5.89;69.82;96838.56;4966543;28;20239;-86
2024/01/27 07:25:24;;;;;;;3.73;2.30;;;;;;;6.36;69.08;96807.69;4972185;28;20204;-84
2024/01/27 07:27:51;;;;;;;5.07;2.50;;;;;;;6.80;67.82;96756.34;4977028;28;20221;-83
2024/01/27 07:30:17;;;;;;;4.60;2.40;;;;;;;7.11;66.08;96680.41;4975886;28;20681;-85
2024/01/27 07:32:45;;;;;;;3.97;2.30;;;;;;;7.52;65.00;96630.78;4970318;28;20200;-86
2024/01/27 07:35:12;;;;;;;5.13;2.53;;;;;;;7.87;63.69;96578.22;4967324;28;20214;-86
2024/01/27 07:37:38;;;;;;;5.07;2.57;;;;;;;8.11;63.02;96518.78;4956716;28;20609;-86
2024/01/27 07:40:06;;;;;;;6.47;2.73;;;;;;;8.16;62.50;96473.00;4968886;28;20211;-85
2024/01/27 07:42:33;;;;;;;6.60;2.90;;;;;;;8.01;62.39;96459.81;4968995;28;20215;-86
2024/01/27 07:44:59;;;;;;;4.00;2.50;;;;;;;7.97;62.48;96474.69;4970323;28;20224;-85
2024/01/27 07:47:26;;;;;;;4.00;2.60;;;;;;;8.17;62.58;96500.28;4969673;28;20234;-85
2024/01/27 07:49:53;;;;;;;4.63;2.73;;;;;;;8.39;62.21;96501.75;4968140;28;20205;-86
2024/01/27 07:52:20;;;;;;;4.83;2.83;;;;;;;8.45;61.76;96460.94;4969635;28;20210;-85
2024/01/27 07:54:46;;;;;;;5.57;2.97;;;;;;;8.63;61.72;96468.69;4969820;28;20204;-85
2024/01/27 07:57:13;;;;;;;6.77;3.07;;;;;;;8.70;60.86;96415.00;4960485;28;20232;-86
2024/01/27 07:59:39;;;;;;;3.83;2.80;;;;;;;8.79;60.58;96403.88;4972849;28;20329;-85
2024/01/27 08:02:06;;;;;;;5.10;3.40;;;;;;;8.80;60.76;96396.03;4961657;28;20201;-86
2024/01/27 08:04:32;;;;;;;5.43;3.07;;;;;;;8.78;60.12;96366.31;4963938;28;20204;-85
2024/01/27 08:07:05;;;;;;;8.10;3.03;;;;;;;8.76;60.45;96368.22;4969305;28;20224;-86
2024/01/27 08:09:32;;;;;;;5.53;2.87;;;;;;;8.70;60.32;96376.47;4972444;28;20207;-86
2024/01/27 08:12:01;;;;;;;10.63;3.43;;;;;;;8.69;60.34;96374.88;4972187;28;20244;-85
2024/01/27 08:14:28;;;;;;;4.17;3.07;;;;;;;8.67;60.15;96377.56;4953908;28;20229;-85
2024/01/27 08:16:54;;;;;;;6.33;3.00;;;;;;;8.73;60.05;96387.28;4967293;28;20308;-86
2024/01/27 08:19:21;;;;;;;6.03;3.13;;;;;;;8.83;59.91;96358.97;4970434;28;20204;-85
2024/01/27 08:21:48;;;;;;;4.77;2.87;;;;;;;8.96;59.47;96344.81;4970247;28;20623;-85
2024/01/27 08:24:25;;;;;;;6.07;3.07;;;;;;;9.17;58.99;96338.56;4972562;28;20216;-86
2024/01/27 08:26:52;;;;;;;4.43;2.63;;;;;;;9.42;58.93;96324.13;4972451;28;20592;-86
2024/01/27 08:29:18;;;;;;;8.13;3.00;;;;;;;9.63;58.13;96285.97;4971166;28;20212;-85
2024/01/27 08:31:44;;;;;;;4.77;2.80;;;;;;;9.84;57.12;96247.03;4970518;28;20196;-85
2024/01/27 08:34:12;;;;;;;4.90;2.83;;;;;;;9.94;56.46;96219.41;4969969;28;20227;-85
2024/01/27 08:36:38;;;;;;;5.07;2.70;;;;;;;10.10;56.38;96213.50;4970195;28;20224;-85
2024/01/27 08:39:07;;;;;;;4.90;2.90;;;;;;;10.16;56.20;96205.16;4955870;28;20204;-85
2024/01/27 08:41:35;;;;;;;5.47;2.70;;;;;;;10.29;56.19;96205.53;4956521;28;20276;-85
2024/01/27 08:44:01;;;;;;;5.13;3.00;;;;;;;10.37;56.17;96218.41;4971487;28;20212;-85
2024/01/27 08:46:27;;;;;;;17.63;13.37;;;;;;;10.56;55.77;96205.22;4972573;28;20284;-85
2024/01/27 08:48:54;;;;;;;11.50;7.77;;;;;;;10.63;55.08;96141.00;4973073;28;20208;-84
2024/01/27 08:51:20;;;;;;;6.10;3.20;;;;;;;10.77;55.30;96132.63;4973077;28;20481;-85
2024/01/27 08:53:48;;;;;;;4.37;2.97;;;;;;;10.82;54.43;96101.19;4973040;28;20207;-85
2024/01/27 08:56:15;;;;;;;5.73;3.30;;;;;;;10.91;54.30;96080.41;4972344;28;20228;-85
2024/01/27 08:58:44;;;;;;;6.60;3.30;;;;;;;10.91;54.06;96025.50;4971626;28;20207;-85
2024/01/27 09:01:15;;;;;;;5.40;3.33;;;;;;;10.96;54.21;96034.34;4974762;28;20272;-86
2024/01/27 09:03:41;;;;;;;6.80;3.37;;;;;;;11.01;54.54;96057.81;4973501;28;20220;-84
2024/01/27 09:06:08;;;;;;;5.77;3.37;;;;;;;11.03;53.77;96008.69;4970922;28;20224;-85
2024/01/27 09:08:35;;;;;;;12.77;8.60;;;;;;;10.90;54.01;95980.09;4960863;28;20275;-85
2024/01/27 09:11:02;;;;;;;8.57;4.47;;;;;;;10.87;54.34;96037.91;4970766;28;20223;-85
2024/01/27 09:13:28;;;;;;;6.87;3.60;;;;;;;10.90;54.64;96068.50;4971803;28;20208;-86
2024/01/27 09:15:58;;;;;;;4.40;3.10;;;;;;;10.98;54.69;96085.69;4971737;28;20585;-86
2024/01/27 09:18:24;;;;;;;7.20;3.67;;;;;;;11.08;54.78;96104.34;4970355;28;20204;-85
2024/01/27 09:20:51;;;;;;;7.90;3.83;;;;;;;11.18;54.70;96110.09;4973559;28;20200;-84
2024/01/27 09:23:17;;;;;;;4.63;3.40;;;;;;;11.26;54.35;96057.72;4974157;28;20200;-85
2024/01/27 09:25:46;;;;;;;5.67;3.20;;;;;;;11.29;53.02;95970.53;4970238;28;20204;-85
2024/01/27 09:28:12;;;;;;;7.30;3.13;;;;;;;11.36;52.91;95945.66;4973142;28;20669;-86
2024/01/27 09:30:38;;;;;;;5.37;3.30;;;;;;;11.27;52.82;95917.56;4969440;28;20204;-85
2024/01/27 09:33:06;;;;;;;6.10;3.73;;;;;;;11.23;53.13;95952.38;4971988;28;20207;-84
2024/01/27 09:35:33;;;;;;;7.23;3.20;;;;;;;11.27;52.93;95959.59;4974180;28;20200;-85
2024/01/27 09:37:59;;;;;;;4.50;2.83;;;;;;;11.35;52.54;95917.50;4974265;28;20227;-84
2024/01/27 09:40:30;;;;;;;6.20;3.30;;;;;;;11.46;53.04;95976.38;4971704;28;20215;-84
2024/01/27 09:43:00;;;;;;;6.63;2.87;;;;;;;11.27;52.96;95977.66;4972016;28;20223;-85
2024/01/27 09:45:27;;;;;;;4.73;2.97;;;;;;;11.35;51.35;95865.94;4970553;28;20212;-85
2024/01/27 09:47:54;;;;;;;5.47;2.90;;;;;;;11.29;51.75;95879.53;4970432;28;20220;-86
2024/01/27 09:50:22;;;;;;;7.30;3.07;;;;;;;11.10;51.48;95847.28;4972600;28;20756;-85
2024/01/27 09:52:49;;;;;;;7.50;3.27;;;;;;;11.20;52.50;95922.59;4970942;28;20207;-85
2024/01/27 09:55:15;;;;;;;7.47;3.77;;;;;;;11.32;51.94;95900.59;4973264;28;20316;-85
2024/01/27 09:57:42;;;;;;;6.33;2.90;;;;;;;11.19;52.62;95918.41;4974167;28;20244;-86
2024/01/27 10:00:56;;;;;;;5.60;3.07;;;;;;;11.21;52.60;95955.13;4973793;28;20199;-86
2024/01/27 10:03:25;;;;;;;8.27;3.07;;;;;;;11.34;52.09;95914.13;4973259;28;20211;-85
2024/01/27 10:05:54;;;;;;;6.63;2.90;;;;;;;11.40;51.33;95830.13;4969168;28;20201;-85
2024/01/27 10:08:21;;;;;;;5.20;3.03;;;;;;;11.18;51.93;95893.59;4974108;28;20574;-85
2024/01/27 10:10:48;;;;;;;7.50;3.00;;;;;;;11.21;51.45;95848.66;4990017;28;20584;-86
2024/01/27 10:13:17;;;;;;;6.60;2.80;;;;;;;10.92;52.22;95903.47;4970577;28;20208;-86
2024/01/27 10:15:44;;;;;;;4.53;2.63;;;;;;;11.07;53.03;95984.22;4977288;28;20206;-85
2024/01/27 10:18:12;;;;;;;9.57;5.97;;;;;;;11.12;52.77;95984.50;4973406;28;20234;-85
2024/01/27 10:20:40;;;;;;;5.73;3.73;;;;;;;11.13;52.67;95959.53;4975411;28;20215;-85
2024/01/27 10:23:14;;;;;;;7.77;3.10;;;;;;;11.04;52.41;95948.47;4976686;28;20239;-84
2024/01/27 10:25:44;;;;;;;4.93;2.90;;;;;;;11.21;52.68;95964.63;4976294;28;20259;-85
2024/01/27 10:28:11;;;;;;;6.70;2.80;;;;;;;11.36;51.86;95895.88;4976038;28;20219;-86
2024/01/27 10:30:38;;;;;;;5.03;2.80;;;;;;;11.59;51.15;95867.50;4977166;28;20199;-85
2024/01/27 10:33:09;;;;;;;5.00;2.87;;;;;;;11.80;51.16;95875.38;4976470;28;20264;-85
2024/01/27 10:35:35;;;;;;;4.90;3.00;;;;;;;12.00;51.10;95867.91;4974687;28;20201;-84
2024/01/27 10:38:02;;;;;;;6.40;3.07;;;;;;;11.98;50.34;95805.34;4977853;28;20300;-85
2024/01/27 10:40:30;;;;;;;5.00;2.60;;;;;;;12.00;51.18;95888.56;4977659;28;20203;-85
2024/01/27 10:43:05;;;;;;;5.13;3.47;;;;;;;11.93;49.48;95718.16;4976822;28;20208;-85
2024/01/27 10:45:36;;;;;;;11.07;7.43;;;;;;;11.73;49.79;95748.88;4977960;28;20605;-86
2024/01/27 10:48:04;;;;;;;6.37;3.57;;;;;;;11.75;49.17;95684.19;4978891;28;20267;-84
2024/01/27 10:50:32;;;;;;;4.33;3.03;;;;;;;11.72;49.53;95689.72;4976824;28;20238;-85
2024/01/27 10:53:24;;;;;;;6.17;3.73;;;;;;;11.86;49.80;95721.66;4978057;28;20640;-85
2024/01/27 10:56:33;;;;;;;5.00;2.80;;;;;;;11.93;49.63;95843.81;4977627;28;20196;-85
2024/01/27 10:59:01;;;;;;;4.07;2.50;;;;;;;11.91;47.82;95939.47;4955986;28;20662;-85
2024/01/27 11:01:31;;;;;;;7.17;2.70;;;;;;;11.88;48.09;95969.97;4965080;28;20882;-84
2024/01/27 11:03:59;;;;;;;12.63;8.37;;;;;;;11.94;48.40;95987.31;4976665;28;20230;-84
2024/01/27 11:06:27;;;;;;;17.47;11.47;;;;;;;11.71;49.69;96052.63;4975479;28;20224;-84
2024/01/27 11:08:55;;;;;;;5.80;3.37;;;;;;;11.60;48.78;95991.09;4976937;28;20227;-85
2024/01/27 11:11:23;;;;;;;4.77;2.77;;;;;;;11.63;48.65;95969.34;4971183;28;20205;-85
2024/01/27 11:13:50;;;;;;;4.50;2.67;;;;;;;11.53;49.10;95992.78;4978554;28;20200;-84
2024/01/27 11:16:17;;;;;;;6.50;3.20;;;;;;;11.69;49.37;96046.84;4979760;28;20220;-85
2024/01/27 11:18:43;;;;;;;6.27;3.17;;;;;;;11.63;49.10;95995.13;4979506;28;20231;-85
2024/01/27 11:21:14;;;;;;;6.80;3.23;;;;;;;11.49;49.70;96047.44;4968299;28;20236;-85
2024/01/27 11:23:40;;;;;;;7.80;3.23;;;;;;;11.62;49.52;96035.59;4971562;28;20555;-85
2024/01/27 11:26:08;;;;;;;4.10;2.77;;;;;;;11.50;49.50;96041.31;4979272;28;20212;-85
2024/01/27 11:28:36;;;;;;;5.73;2.97;;;;;;;11.52;49.34;96022.13;4976416;28;20203;-85
2024/01/27 11:31:07;;;;;;;4.53;2.57;;;;;;;11.71;49.30;96013.13;4979045;28;20196;-84
2024/01/27 11:33:34;;;;;;;7.70;2.83;;;;;;;11.70;48.36;95978.78;4976594;28;20209;-85
2024/01/27 11:36:02;;;;;;;13.20;8.43;;;;;;;11.71;48.37;95962.34;4976067;28;20211;-85
2024/01/27 11:38:28;;;;;;;10.67;7.13;;;;;;;11.75;48.27;95966.16;4975741;28;20225;-85
2024/01/27 11:40:55;;;;;;;7.30;3.47;;;;;;;11.69;48.88;95989.28;4977224;28;20204;-86